createdAt,value
2023-07-19T00:00:45.650Z,100706.59
2023-07-19T00:01:52.755Z,100709.72
2023-07-19T00:04:19.431Z,100711.63
2023-07-19T00:05:45.703Z,100711.63
2023-07-19T00:06:46.080Z,100712.81
2023-07-19T00:09:12.472Z,100697.03
2023-07-19T00:10:45.655Z,100697.03
2023-07-19T00:11:38.844Z,100707.97
2023-07-19T00:14:07.582Z,100638.22
2023-07-19T00:15:45.659Z,100638.22
2023-07-19T00:16:34.521Z,100724.06
2023-07-19T00:19:14.257Z,100693.94
2023-07-19T00:20:45.720Z,100693.94
2023-07-19T00:21:46.643Z,100738.81
2023-07-19T00:24:13.090Z,100750.56
2023-07-19T00:25:45.692Z,100750.56
2023-07-19T00:26:39.464Z,100728.38
2023-07-19T00:29:05.886Z,100730.78
2023-07-19T00:30:45.666Z,100730.78
2023-07-19T00:31:32.416Z,100715.03
2023-07-19T00:33:58.935Z,100481.00
2023-07-19T00:35:45.639Z,100481.00
2023-07-19T00:36:25.411Z,100657.56
2023-07-19T00:38:52.193Z,100702.53
2023-07-19T00:40:45.653Z,100702.53
2023-07-19T00:41:19.845Z,100703.59
2023-07-19T00:43:47.643Z,100715.88
2023-07-19T00:45:45.660Z,100715.88
2023-07-19T00:46:14.691Z,100695.00
2023-07-19T00:48:42.915Z,100732.88
2023-07-19T00:50:45.657Z,100732.88
2023-07-19T00:51:09.894Z,100677.66
2023-07-19T00:53:38.025Z,100724.13
2023-07-19T00:55:45.652Z,100724.13
2023-07-19T00:56:04.839Z,100713.69
2023-07-19T00:58:32.262Z,100728.47
2023-07-19T01:00:45.649Z,100728.47
2023-07-19T01:00:59.694Z,100686.47
2023-07-19T01:03:26.209Z,100715.19
2023-07-19T01:05:45.720Z,100715.19
2023-07-19T01:05:52.761Z,100706.75
2023-07-19T01:08:19.601Z,100665.78
2023-07-19T01:10:46.807Z,100683.09
2023-07-19T01:10:46.952Z,100683.09
2023-07-19T01:13:13.327Z,100721.25
2023-07-19T01:15:41.367Z,100729.06
2023-07-19T01:15:45.635Z,100729.06
2023-07-19T01:18:08.162Z,100728.19
2023-07-19T01:20:35.735Z,100722.19
2023-07-19T01:20:45.653Z,100722.19
2023-07-19T01:23:03.329Z,100698.22
2023-07-19T01:25:29.849Z,100582.72
2023-07-19T01:25:45.680Z,100582.72
2023-07-19T01:27:56.246Z,100710.00
2023-07-19T01:30:22.757Z,100710.44
2023-07-19T01:30:45.634Z,100710.44
2023-07-19T01:32:49.323Z,100726.81
2023-07-19T01:35:16.446Z,100739.88
2023-07-19T01:35:45.654Z,100739.88
2023-07-19T01:37:42.950Z,100718.78
2023-07-19T01:40:12.570Z,100709.38
2023-07-19T01:40:45.640Z,100709.38
2023-07-19T01:42:41.759Z,100721.63
2023-07-19T01:45:08.884Z,100724.69
2023-07-19T01:45:45.667Z,100724.69
2023-07-19T01:47:35.506Z,100725.72
2023-07-19T01:50:01.988Z,100729.41
2023-07-19T01:50:45.654Z,100729.41
2023-07-19T01:52:28.389Z,100731.53
2023-07-19T01:54:54.743Z,100731.31
2023-07-19T01:55:45.654Z,100731.31
2023-07-19T01:57:21.175Z,100715.91
2023-07-19T01:59:47.562Z,100726.78
2023-07-19T02:00:45.652Z,100726.78
2023-07-19T02:02:14.008Z,100727.75
2023-07-19T02:04:40.593Z,100667.59
2023-07-19T02:05:45.753Z,100667.59
2023-07-19T02:07:07.139Z,100666.63
2023-07-19T02:09:33.534Z,100738.81
2023-07-19T02:10:45.679Z,100738.81
2023-07-19T02:11:59.964Z,100735.63
2023-07-19T02:14:26.417Z,100732.25
2023-07-19T02:15:45.713Z,100732.25
2023-07-19T02:16:53.278Z,100733.47
2023-07-19T02:19:19.692Z,100718.28
2023-07-19T02:20:45.655Z,100718.28
2023-07-19T02:21:46.340Z,100738.84
2023-07-19T02:24:12.725Z,100721.25
2023-07-19T02:25:45.657Z,100721.25
2023-07-19T02:26:39.251Z,100731.97
2023-07-19T02:29:05.640Z,100694.13
2023-07-19T02:30:45.678Z,100694.13
2023-07-19T02:31:32.678Z,100735.03
2023-07-19T02:33:59.087Z,100697.69
2023-07-19T02:35:46.694Z,100697.69
2023-07-19T02:36:25.509Z,100755.00
2023-07-19T02:38:51.866Z,100752.50
2023-07-19T02:40:45.638Z,100752.50
2023-07-19T02:41:18.385Z,100745.13
2023-07-19T02:43:45.253Z,100732.66
2023-07-19T02:45:45.658Z,100732.66
2023-07-19T02:46:11.658Z,100743.91
2023-07-19T02:48:38.038Z,100751.41
2023-07-19T02:50:45.658Z,100751.41
2023-07-19T02:51:04.475Z,100746.13
2023-07-19T02:53:30.861Z,100747.56
2023-07-19T02:55:45.647Z,100747.56
2023-07-19T02:55:57.337Z,100746.47
2023-07-19T02:58:24.293Z,100771.16
2023-07-19T03:00:45.704Z,100771.16
2023-07-19T03:00:54.375Z,100676.66
2023-07-19T03:03:21.229Z,100763.66
2023-07-19T03:05:45.904Z,100763.66
2023-07-19T03:05:47.784Z,100767.38
2023-07-19T03:08:16.520Z,100772.22
2023-07-19T03:10:42.957Z,100788.47
2023-07-19T03:10:45.662Z,100788.47
2023-07-19T03:13:10.212Z,100789.72
2023-07-19T03:15:36.702Z,100786.56
2023-07-19T03:15:45.671Z,100786.56
2023-07-19T03:18:04.588Z,100718.56
2023-07-19T03:20:32.246Z,100793.84
2023-07-19T03:20:45.774Z,100793.84
2023-07-19T03:22:59.402Z,100797.16
2023-07-19T03:25:25.899Z,100793.44
2023-07-19T03:25:45.673Z,100793.44
2023-07-19T03:27:52.378Z,100743.97
2023-07-19T03:30:19.092Z,100788.63
2023-07-19T03:30:45.706Z,100788.63
2023-07-19T03:32:47.964Z,100790.97
2023-07-19T03:35:14.688Z,100798.56
2023-07-19T03:35:45.657Z,100798.56
2023-07-19T03:37:45.471Z,100788.66
2023-07-19T03:40:15.512Z,100749.63
2023-07-19T03:40:45.715Z,100749.63
2023-07-19T03:42:42.226Z,100773.75
2023-07-19T03:45:08.981Z,100795.09
2023-07-19T03:45:45.711Z,100795.09
2023-07-19T03:47:35.499Z,100790.47
2023-07-19T03:50:02.053Z,100788.47
2023-07-19T03:50:45.666Z,100788.47
2023-07-19T03:52:28.668Z,100793.31
2023-07-19T03:54:55.987Z,100793.22
2023-07-19T03:55:45.686Z,100793.22
2023-07-19T03:57:22.445Z,100738.47
2023-07-19T03:59:48.803Z,100779.16
2023-07-19T04:00:45.675Z,100779.16
2023-07-19T04:02:15.319Z,100780.63
2023-07-19T04:04:44.217Z,100783.78
2023-07-19T04:05:45.734Z,100783.78
2023-07-19T04:07:10.625Z,100729.81
2023-07-19T04:09:37.029Z,100753.88
2023-07-19T04:10:45.690Z,100753.88
2023-07-19T04:12:03.701Z,100779.00
2023-07-19T04:14:30.086Z,100657.03
2023-07-19T04:15:45.680Z,100657.03
2023-07-19T04:16:56.532Z,100775.38
2023-07-19T04:19:23.074Z,100781.41
2023-07-19T04:20:45.660Z,100781.41
2023-07-19T04:21:49.706Z,100779.50
2023-07-19T04:24:16.154Z,100768.63
2023-07-19T04:25:45.679Z,100768.63
2023-07-19T04:26:42.516Z,100763.09
2023-07-19T04:29:08.881Z,100769.75
2023-07-19T04:30:47.207Z,100769.75
2023-07-19T04:31:35.247Z,100772.66
2023-07-19T04:34:01.694Z,100769.41
2023-07-19T04:35:45.667Z,100769.41
2023-07-19T04:36:28.272Z,100770.53
2023-07-19T04:38:54.631Z,100761.00
2023-07-19T04:40:45.680Z,100761.00
2023-07-19T04:41:21.267Z,100595.78
2023-07-19T04:43:47.854Z,100674.06
2023-07-19T04:45:45.705Z,100674.06
2023-07-19T04:46:14.519Z,100746.50
2023-07-19T04:48:40.951Z,100753.00
2023-07-19T04:50:45.670Z,100753.00
2023-07-19T04:51:07.587Z,100735.19
2023-07-19T04:53:34.113Z,100758.25
2023-07-19T04:55:45.668Z,100758.25
2023-07-19T04:56:00.642Z,100700.16
2023-07-19T04:58:27.117Z,100701.59
2023-07-19T05:00:45.690Z,100701.59
2023-07-19T05:00:53.508Z,100753.75
2023-07-19T05:03:20.052Z,100760.78
2023-07-19T05:05:48.870Z,100759.84
2023-07-19T05:05:49.025Z,100759.84
2023-07-19T05:08:15.365Z,100751.19
2023-07-19T05:10:42.024Z,100724.28
2023-07-19T05:10:45.656Z,100724.28
2023-07-19T05:13:08.873Z,100723.50
2023-07-19T05:15:35.948Z,100732.13
2023-07-19T05:15:45.672Z,100732.13
2023-07-19T05:18:02.536Z,100739.59
2023-07-19T05:20:32.856Z,100669.22
2023-07-19T05:20:45.686Z,100669.22
2023-07-19T05:22:59.673Z,100739.84
2023-07-19T05:25:26.154Z,100749.50
2023-07-19T05:25:45.672Z,100749.50
2023-07-19T05:27:52.540Z,100755.09
2023-07-19T05:30:19.167Z,100736.78
2023-07-19T05:30:45.682Z,100736.78
2023-07-19T05:32:45.591Z,100675.06
2023-07-19T05:35:12.146Z,100715.81
2023-07-19T05:35:45.670Z,100715.81
2023-07-19T05:37:40.321Z,100763.88
2023-07-19T05:40:11.218Z,100767.38
2023-07-19T05:40:45.696Z,100767.38
2023-07-19T05:42:37.635Z,100752.34
2023-07-19T05:45:04.602Z,100723.63
2023-07-19T05:45:45.717Z,100723.63
2023-07-19T05:47:31.379Z,100713.44
2023-07-19T05:49:57.926Z,100706.28
2023-07-19T05:50:45.690Z,100706.28
2023-07-19T05:52:24.460Z,100665.06
2023-07-19T05:54:50.858Z,100654.44
2023-07-19T05:55:45.669Z,100654.44
2023-07-19T05:57:17.305Z,100661.91
2023-07-19T05:59:43.772Z,100653.84
2023-07-19T06:00:45.726Z,100653.84
2023-07-19T06:02:10.342Z,100650.78
2023-07-19T06:04:36.916Z,100644.06
2023-07-19T06:05:45.792Z,100644.06
2023-07-19T06:07:03.762Z,100598.63
2023-07-19T06:09:31.528Z,100633.84
2023-07-19T06:10:45.692Z,100633.84
2023-07-19T06:11:58.831Z,100692.66
2023-07-19T06:14:25.530Z,100644.53
2023-07-19T06:15:45.699Z,100644.53
2023-07-19T06:16:51.983Z,100691.72
2023-07-19T06:19:20.779Z,100639.75
2023-07-19T06:20:45.695Z,100639.75
2023-07-19T06:21:47.540Z,100694.50
2023-07-19T06:24:14.095Z,100627.81
2023-07-19T06:25:45.685Z,100627.81
2023-07-19T06:26:40.490Z,100705.69
2023-07-19T06:29:06.968Z,100713.44
2023-07-19T06:30:45.731Z,100713.44
2023-07-19T06:31:33.564Z,100705.38
2023-07-19T06:34:00.003Z,100694.41
2023-07-19T06:35:45.719Z,100694.41
2023-07-19T06:36:27.780Z,100686.25
2023-07-19T06:38:54.352Z,100671.63
2023-07-19T06:40:45.704Z,100671.63
2023-07-19T06:41:21.034Z,100660.59
2023-07-19T06:43:47.911Z,100695.19
2023-07-19T06:45:45.688Z,100695.19
2023-07-19T06:46:14.296Z,100613.13
2023-07-19T06:48:40.655Z,100648.72
2023-07-19T06:50:45.696Z,100648.72
2023-07-19T06:51:07.153Z,100676.72
2023-07-19T06:53:33.565Z,100681.50
2023-07-19T06:55:45.681Z,100681.50
2023-07-19T06:56:00.644Z,100673.53
2023-07-19T06:58:27.344Z,100679.16
2023-07-19T07:00:45.703Z,100679.16
2023-07-19T07:00:58.159Z,100665.63
2023-07-19T07:03:25.284Z,100673.72
2023-07-19T07:05:45.760Z,100673.72
2023-07-19T07:05:51.837Z,100665.78
2023-07-19T07:08:20.318Z,100634.13
2023-07-19T07:10:46.649Z,100650.94
2023-07-19T07:10:46.781Z,100650.94
2023-07-19T07:13:13.134Z,100659.63
2023-07-19T07:15:39.548Z,100671.06
2023-07-19T07:15:45.683Z,100671.06
2023-07-19T07:18:05.951Z,100629.81
2023-07-19T07:20:35.964Z,100738.03
2023-07-19T07:20:45.685Z,100738.03
2023-07-19T07:23:03.007Z,100709.66
2023-07-19T07:25:31.113Z,100774.34
2023-07-19T07:25:45.802Z,100774.34
2023-07-19T07:27:58.588Z,100787.66
2023-07-19T07:30:24.987Z,100752.81
2023-07-19T07:30:45.689Z,100752.81
2023-07-19T07:32:51.443Z,100841.34
2023-07-19T07:35:17.929Z,100845.19
2023-07-19T07:35:45.670Z,100845.19
2023-07-19T07:37:44.346Z,100808.81
2023-07-19T07:40:13.555Z,100731.00
2023-07-19T07:40:45.663Z,100731.00
2023-07-19T07:42:42.338Z,100743.16
2023-07-19T07:45:09.336Z,100727.88
2023-07-19T07:45:45.678Z,100727.88
2023-07-19T07:47:36.188Z,100657.91
2023-07-19T07:50:04.614Z,100671.66
2023-07-19T07:50:45.701Z,100671.66
2023-07-19T07:52:31.654Z,100723.94
2023-07-19T07:54:58.134Z,100672.72
2023-07-19T07:55:45.674Z,100672.72
2023-07-19T07:57:24.534Z,100649.84
2023-07-19T07:59:51.025Z,100691.97
2023-07-19T08:00:45.797Z,100691.97
2023-07-19T08:02:17.483Z,100694.22
2023-07-19T08:04:44.102Z,100569.88
2023-07-19T08:05:45.806Z,100569.88
2023-07-19T08:07:10.528Z,100670.25
2023-07-19T08:09:36.889Z,100694.84
2023-07-19T08:10:45.682Z,100694.84
2023-07-19T08:12:03.547Z,100653.00
2023-07-19T08:14:29.948Z,100657.34
2023-07-19T08:15:45.691Z,100657.34
2023-07-19T08:16:56.382Z,100631.09
2023-07-19T08:19:22.754Z,100635.13
2023-07-19T08:20:45.691Z,100635.13
2023-07-19T08:21:49.201Z,100569.34
2023-07-19T08:24:15.757Z,100575.84
2023-07-19T08:25:45.836Z,100575.84
2023-07-19T08:26:42.206Z,100598.28
2023-07-19T08:29:08.637Z,100439.53
2023-07-19T08:30:45.722Z,100439.53
2023-07-19T08:31:35.721Z,100597.72
2023-07-19T08:34:02.351Z,100592.97
2023-07-19T08:35:45.706Z,100592.97
2023-07-19T08:36:31.024Z,100661.41
2023-07-19T08:38:57.878Z,100697.75
2023-07-19T08:40:45.716Z,100697.75
2023-07-19T08:41:29.240Z,100766.22
2023-07-19T08:43:56.253Z,100791.06
2023-07-19T08:45:45.686Z,100791.06
2023-07-19T08:46:23.387Z,100710.94
2023-07-19T08:48:50.053Z,100735.22
2023-07-19T08:50:45.692Z,100735.22
2023-07-19T08:51:17.883Z,100721.31
2023-07-19T08:53:45.658Z,100780.72
2023-07-19T08:55:45.690Z,100780.72
2023-07-19T08:56:13.116Z,100597.22
2023-07-19T08:58:41.153Z,100675.81
2023-07-19T09:00:47.440Z,100675.81
2023-07-19T09:01:08.317Z,100674.59
2023-07-19T09:03:35.249Z,100620.47
2023-07-19T09:05:45.802Z,100620.47
2023-07-19T09:06:02.513Z,100559.00
2023-07-19T09:08:39.169Z,100592.63
2023-07-19T09:10:45.687Z,100592.63
2023-07-19T09:11:05.925Z,100517.53
2023-07-19T09:13:35.913Z,100548.94
2023-07-19T09:15:45.678Z,100548.94
2023-07-19T09:16:04.892Z,100552.84
2023-07-19T09:18:38.822Z,100394.50
2023-07-19T09:20:45.705Z,100394.50
2023-07-19T09:21:06.156Z,100448.25
2023-07-19T09:23:39.677Z,100479.63
2023-07-19T09:25:45.700Z,100479.63
2023-07-19T09:26:07.048Z,100458.56
2023-07-19T09:28:36.790Z,100482.94
2023-07-19T09:30:45.712Z,100482.94
2023-07-19T09:33:34.634Z,100434.13
2023-07-19T09:35:46.275Z,100434.13
2023-07-19T09:36:01.023Z,100493.09
2023-07-19T09:38:27.529Z,100493.69
2023-07-19T09:40:45.707Z,100493.69
2023-07-19T09:40:55.350Z,100464.78
2023-07-19T09:43:22.425Z,100347.31
2023-07-19T09:45:45.711Z,100347.31
2023-07-19T09:45:50.310Z,100503.91
2023-07-19T09:48:17.607Z,100450.03
2023-07-19T09:50:46.727Z,100432.53
2023-07-19T09:50:46.846Z,100432.53
2023-07-19T09:53:14.586Z,100450.88
2023-07-19T09:55:41.353Z,100377.13
2023-07-19T09:55:45.680Z,100377.13
2023-07-19T09:58:12.315Z,100300.78
2023-07-19T10:00:40.255Z,100326.44
2023-07-19T10:00:45.703Z,100326.44
2023-07-19T10:03:08.566Z,100365.53
2023-07-19T10:05:35.660Z,100385.13
2023-07-19T10:05:45.865Z,100385.13
2023-07-19T10:08:05.084Z,100277.84
2023-07-19T10:10:42.903Z,100315.06
2023-07-19T10:10:45.695Z,100315.06
2023-07-19T10:13:09.938Z,100351.03
2023-07-19T10:15:36.915Z,100379.66
2023-07-19T10:15:45.671Z,100379.66
2023-07-19T10:18:11.026Z,100312.75
2023-07-19T10:20:37.550Z,100330.28
2023-07-19T10:20:45.707Z,100330.28
2023-07-19T10:23:14.724Z,100296.66
2023-07-19T10:25:50.459Z,100269.41
2023-07-19T10:25:50.610Z,100269.41
2023-07-19T10:28:33.127Z,100307.09
2023-07-19T10:30:45.680Z,100307.09
2023-07-19T10:31:10.282Z,100275.44
2023-07-19T10:33:46.991Z,100238.63
2023-07-19T10:35:45.718Z,100238.63
2023-07-19T10:36:14.992Z,100238.25
2023-07-19T10:38:41.480Z,100292.44
2023-07-19T10:40:45.712Z,100292.44
2023-07-19T10:41:10.037Z,100255.84
2023-07-19T10:45:45.746Z,100350.69
2023-07-19T10:46:07.805Z,100257.31
2023-07-19T10:48:41.547Z,100274.31
2023-07-19T10:50:45.689Z,100274.31
2023-07-19T10:51:09.124Z,100226.03
2023-07-19T10:53:47.267Z,100226.59
2023-07-19T10:55:53.566Z,100226.59
2023-07-19T10:56:15.770Z,100204.44
2023-07-19T10:58:43.817Z,100219.53
2023-07-19T11:00:45.741Z,100219.53
2023-07-19T11:01:10.387Z,100201.28
2023-07-19T11:03:37.000Z,100087.25
2023-07-19T11:05:45.723Z,100087.25
2023-07-19T11:06:07.505Z,100265.94
2023-07-19T11:08:33.940Z,100178.03
2023-07-19T11:10:45.694Z,100178.03
2023-07-19T11:11:00.465Z,100238.84
2023-07-19T11:13:27.534Z,100218.75
2023-07-19T11:15:45.709Z,100218.75
2023-07-19T11:16:02.063Z,100300.38
2023-07-19T11:18:30.680Z,100235.81
2023-07-19T11:20:47.705Z,100235.81
2023-07-19T11:20:58.852Z,100357.50
2023-07-19T11:23:26.748Z,100224.22
2023-07-19T11:25:45.699Z,100224.22
2023-07-19T11:26:04.080Z,100202.09
2023-07-19T11:28:43.127Z,100236.28
2023-07-19T11:30:45.781Z,100236.28
2023-07-19T11:31:11.529Z,100248.69
2023-07-19T11:33:40.550Z,100234.41
2023-07-19T11:35:45.709Z,100234.41
2023-07-19T11:36:09.026Z,100211.00
2023-07-19T11:38:39.036Z,100188.78
2023-07-19T11:40:45.738Z,100188.78
2023-07-19T11:41:05.596Z,100306.88
2023-07-19T11:43:32.421Z,100283.56
2023-07-19T11:45:45.736Z,100283.56
2023-07-19T11:45:58.884Z,100200.53
2023-07-19T11:48:27.782Z,100258.78
2023-07-19T11:50:45.795Z,100258.78
2023-07-19T11:50:55.204Z,100192.63
2023-07-19T11:53:21.618Z,100182.16
2023-07-19T11:55:45.792Z,100182.16
2023-07-19T11:55:48.732Z,100245.06
2023-07-19T11:58:15.123Z,100275.88
2023-07-19T12:00:41.669Z,100228.25
2023-07-19T12:00:45.848Z,100228.25
2023-07-19T12:03:08.298Z,100259.47
2023-07-19T12:05:35.397Z,100288.19
2023-07-19T12:05:45.860Z,100288.19
2023-07-19T12:08:04.014Z,100283.41
2023-07-19T12:10:31.061Z,100214.19
2023-07-19T12:10:45.844Z,100214.19
2023-07-19T12:12:58.712Z,100270.81
2023-07-19T12:15:26.981Z,100285.44
2023-07-19T12:15:45.929Z,100285.44
2023-07-19T12:17:56.197Z,100309.56
2023-07-19T12:20:22.691Z,100273.19
2023-07-19T12:20:45.903Z,100273.19
2023-07-19T12:22:50.064Z,100296.69
2023-07-19T12:25:16.578Z,100257.69
2023-07-19T12:25:45.906Z,100257.69
2023-07-19T12:27:43.425Z,100158.69
2023-07-19T12:30:11.287Z,100141.16
2023-07-19T12:30:45.963Z,100141.16
2023-07-19T12:32:39.576Z,100190.38
2023-07-19T12:35:06.368Z,100282.47
2023-07-19T12:35:45.955Z,100282.47
2023-07-19T12:37:34.384Z,100319.78
2023-07-19T12:40:00.737Z,100252.66
2023-07-19T12:40:45.951Z,100252.66
2023-07-19T12:42:29.062Z,100261.16
2023-07-19T12:44:55.510Z,100270.56
2023-07-19T12:45:45.966Z,100270.56
2023-07-19T12:47:21.923Z,100201.06
2023-07-19T12:49:48.329Z,100245.53
2023-07-19T12:50:46.008Z,100245.53
2023-07-19T12:52:16.864Z,100220.47
2023-07-19T12:54:43.271Z,100258.66
2023-07-19T12:55:45.995Z,100258.66
2023-07-19T12:57:09.680Z,100210.13
2023-07-19T12:59:36.355Z,100196.81
2023-07-19T13:00:46.061Z,100196.81
2023-07-19T13:02:03.466Z,100213.28
2023-07-19T13:04:30.530Z,100205.53
2023-07-19T13:05:46.097Z,100205.53
2023-07-19T13:06:58.939Z,100196.06
2023-07-19T13:09:25.340Z,100221.56
2023-07-19T13:10:46.073Z,100221.56
2023-07-19T13:11:51.918Z,100279.22
2023-07-19T13:14:18.374Z,100225.09
2023-07-19T13:15:46.162Z,100225.09
2023-07-19T13:16:44.907Z,100253.38
2023-07-19T13:19:12.479Z,100293.13
2023-07-19T13:20:46.098Z,100293.13
2023-07-19T13:21:38.958Z,100280.34
2023-07-19T13:24:05.845Z,100338.25
2023-07-19T13:25:46.167Z,100338.25
2023-07-19T13:26:32.531Z,100268.66
2023-07-19T13:29:01.354Z,100249.31
2023-07-19T13:30:46.153Z,100249.31
2023-07-19T13:31:28.891Z,100251.19
2023-07-19T13:33:57.730Z,100256.75
2023-07-19T13:36:29.564Z,100247.50
2023-07-19T13:38:57.264Z,100297.00
2023-07-19T13:40:46.185Z,100297.00
2023-07-19T13:41:24.669Z,100242.31
2023-07-19T13:43:54.463Z,100095.34
2023-07-19T13:45:46.190Z,100095.34
2023-07-19T13:46:23.345Z,100291.28
2023-07-19T13:48:50.708Z,100229.97
2023-07-19T13:50:46.232Z,100229.97
2023-07-19T13:51:17.198Z,100268.66
2023-07-19T13:53:43.892Z,100227.00
2023-07-19T13:55:46.264Z,100227.00
2023-07-19T13:56:11.663Z,100268.44
2023-07-19T13:58:39.780Z,100209.34
2023-07-19T14:00:46.316Z,100209.34
2023-07-19T14:01:06.452Z,100277.00
2023-07-19T14:03:33.110Z,100223.44
2023-07-19T14:05:46.393Z,100223.44
2023-07-19T14:05:59.465Z,100189.25
2023-07-19T14:08:25.851Z,100181.13
2023-07-19T14:10:46.332Z,100181.13
2023-07-19T14:10:52.534Z,100231.00
2023-07-19T14:15:47.070Z,100213.44
2023-07-19T14:15:48.392Z,100156.47
2023-07-19T14:18:16.243Z,100190.56
2023-07-19T14:20:42.801Z,100203.16
2023-07-19T14:20:46.352Z,100203.16
2023-07-19T14:23:09.331Z,100204.66
2023-07-19T14:25:37.983Z,100232.47
2023-07-19T14:25:46.418Z,100232.47
2023-07-19T14:28:04.593Z,100170.31
2023-07-19T14:30:31.032Z,100256.66
2023-07-19T14:30:46.414Z,100256.66
2023-07-19T14:32:57.439Z,100322.38
2023-07-19T14:35:23.925Z,100229.03
2023-07-19T14:35:46.458Z,100229.03
2023-07-19T14:37:50.393Z,100219.09
2023-07-19T14:40:16.801Z,100280.50
2023-07-19T14:40:46.531Z,100280.50
2023-07-19T14:42:43.644Z,100259.34
2023-07-19T14:45:10.406Z,100257.28
2023-07-19T14:45:46.498Z,100257.28
2023-07-19T14:47:38.789Z,100267.63
2023-07-19T14:50:06.794Z,100295.53
2023-07-19T14:50:56.177Z,100295.53
2023-07-19T14:52:33.274Z,100287.09
2023-07-19T14:55:08.768Z,100281.44
2023-07-19T14:55:46.375Z,100281.44
2023-07-19T14:57:35.126Z,100337.63
2023-07-19T15:00:11.497Z,100296.16
2023-07-19T15:02:39.646Z,100253.97
2023-07-19T15:05:06.568Z,100299.19
2023-07-19T15:05:47.323Z,100299.19
2023-07-19T15:07:33.082Z,100287.66
2023-07-19T15:09:59.603Z,100229.78
2023-07-19T15:10:46.469Z,100229.78
2023-07-19T15:12:26.577Z,100306.28
2023-07-19T15:14:53.492Z,100302.25
2023-07-19T15:15:46.384Z,100302.25
2023-07-19T15:17:19.987Z,100269.66
2023-07-19T15:19:46.457Z,100314.41
2023-07-19T15:20:46.737Z,100314.41
2023-07-19T15:22:12.981Z,100346.88
2023-07-19T15:24:40.494Z,100316.41
2023-07-19T15:25:46.380Z,100316.41
2023-07-19T15:27:09.172Z,100287.22
2023-07-19T15:29:36.618Z,100267.06
2023-07-19T15:30:46.429Z,100267.06
2023-07-19T15:32:03.289Z,100280.81
2023-07-19T15:34:29.784Z,100316.63
2023-07-19T15:35:46.393Z,100316.63
2023-07-19T15:36:56.247Z,100261.19
2023-07-19T15:39:23.880Z,100251.78
2023-07-19T15:40:46.380Z,100251.78
2023-07-19T15:41:51.858Z,100271.28
2023-07-19T15:44:34.454Z,100325.50
2023-07-19T15:45:46.459Z,100325.50
2023-07-19T15:47:03.560Z,100295.09
2023-07-19T15:49:29.908Z,100286.97
2023-07-19T15:50:48.040Z,100286.97
2023-07-19T15:51:58.378Z,100286.56
2023-07-19T15:54:24.824Z,100310.19
2023-07-19T15:55:46.391Z,100310.19
2023-07-19T15:56:51.311Z,100327.88
2023-07-19T15:59:17.824Z,100311.66
2023-07-19T16:00:46.402Z,100311.66
2023-07-19T16:01:44.581Z,100320.06
2023-07-19T16:04:11.095Z,100282.13
2023-07-19T16:05:46.502Z,100282.13
2023-07-19T16:06:37.496Z,100240.47
2023-07-19T16:09:03.963Z,100249.69
2023-07-19T16:10:46.518Z,100249.69
2023-07-19T16:11:30.632Z,100319.84
2023-07-19T16:13:58.159Z,100306.38
2023-07-19T16:15:46.407Z,100306.38
2023-07-19T16:16:27.998Z,100308.97
2023-07-19T16:18:54.448Z,100342.34
2023-07-19T16:20:46.392Z,100342.34
2023-07-19T16:21:25.058Z,100300.56
2023-07-19T16:23:51.552Z,100351.97
2023-07-19T16:25:46.386Z,100351.97
2023-07-19T16:26:17.906Z,100306.16
2023-07-19T16:28:44.280Z,100369.78
2023-07-19T16:30:46.461Z,100369.78
2023-07-19T16:31:14.366Z,100319.81
2023-07-19T16:33:40.980Z,100328.88
2023-07-19T16:35:46.385Z,100328.88
2023-07-19T16:36:07.457Z,100328.88
2023-07-19T16:38:33.941Z,100276.50
2023-07-19T16:40:46.397Z,100276.50
2023-07-19T16:41:00.408Z,100269.56
2023-07-19T16:43:26.884Z,100303.16
2023-07-19T16:45:46.391Z,100303.16
2023-07-19T16:45:53.491Z,100336.63
2023-07-19T16:48:21.910Z,100321.59
2023-07-19T16:50:46.377Z,100321.59
2023-07-19T16:50:48.771Z,100355.03
2023-07-19T16:53:18.095Z,100375.75
2023-07-19T16:55:46.438Z,100390.47
2023-07-19T16:55:46.594Z,100390.47
2023-07-19T16:58:13.284Z,100384.50
2023-07-19T17:00:40.854Z,100331.66
2023-07-19T17:00:46.417Z,100331.66
2023-07-19T17:03:09.144Z,100384.28
2023-07-19T17:05:35.988Z,100312.25
2023-07-19T17:05:46.471Z,100312.25
2023-07-19T17:08:04.621Z,100281.66
2023-07-19T17:10:35.856Z,100318.53
2023-07-19T17:10:46.386Z,100318.53
2023-07-19T17:13:07.156Z,100337.91
2023-07-19T17:15:36.899Z,100329.31
2023-07-19T17:15:46.396Z,100329.31
2023-07-19T17:18:06.103Z,100280.47
2023-07-19T17:20:34.584Z,100281.41
2023-07-19T17:20:46.510Z,100281.41
2023-07-19T17:23:01.303Z,100289.16
2023-07-19T17:25:27.788Z,100211.72
2023-07-19T17:25:46.426Z,100211.72
2023-07-19T17:27:54.170Z,100278.97
2023-07-19T17:30:20.555Z,100195.44
2023-07-19T17:30:46.423Z,100195.44
2023-07-19T17:32:49.020Z,100252.00
2023-07-19T17:35:15.930Z,100300.06
2023-07-19T17:35:46.428Z,100300.06
2023-07-19T17:37:42.433Z,100313.78
2023-07-19T17:40:10.349Z,100337.00
2023-07-19T17:40:46.394Z,100337.00
2023-07-19T17:42:37.739Z,100241.91
2023-07-19T17:45:04.528Z,100282.44
2023-07-19T17:45:46.394Z,100282.44
2023-07-19T17:47:31.328Z,100202.91
2023-07-19T17:49:58.159Z,100272.13
2023-07-19T17:50:46.402Z,100272.13
2023-07-19T17:52:24.909Z,100249.94
2023-07-19T17:54:54.145Z,100281.38
2023-07-19T17:55:46.406Z,100281.38
2023-07-19T17:57:21.565Z,100285.84
2023-07-19T17:59:47.979Z,100327.72
2023-07-19T18:00:46.398Z,100327.72
2023-07-19T18:02:14.561Z,100279.28
2023-07-19T18:04:42.881Z,100337.81
2023-07-19T18:05:46.487Z,100337.81
2023-07-19T18:07:09.356Z,100367.06
2023-07-19T18:09:35.849Z,100349.53
2023-07-19T18:10:46.416Z,100349.53
2023-07-19T18:12:02.792Z,100334.63
2023-07-19T18:14:29.828Z,100335.13
2023-07-19T18:15:46.402Z,100335.13
2023-07-19T18:16:56.213Z,100374.94
2023-07-19T18:19:22.824Z,100409.31
2023-07-19T18:20:46.423Z,100409.31
2023-07-19T18:22:03.069Z,100390.59
2023-07-19T18:24:32.380Z,100338.91
2023-07-19T18:25:46.402Z,100338.91
2023-07-19T18:26:59.680Z,100379.28
2023-07-19T18:29:27.079Z,100313.63
2023-07-19T18:30:46.519Z,100313.63
2023-07-19T18:31:53.735Z,100352.94
2023-07-19T18:34:20.785Z,100374.81
2023-07-19T18:35:46.412Z,100374.81
2023-07-19T18:36:47.315Z,100385.66
2023-07-19T18:39:14.117Z,100362.78
2023-07-19T18:40:46.409Z,100362.78
2023-07-19T18:41:40.503Z,100407.00
2023-07-19T18:44:07.270Z,100396.66
2023-07-19T18:45:46.383Z,100396.66
2023-07-19T18:46:33.717Z,100311.53
2023-07-19T18:49:00.206Z,100381.28
2023-07-19T18:50:46.422Z,100381.28
2023-07-19T18:51:26.645Z,100402.59
2023-07-19T18:53:53.221Z,100329.63
2023-07-19T18:55:46.399Z,100329.63
2023-07-19T18:56:23.501Z,100395.94